sensor_id;sensor_type;location;lat;lon;timestamp;pressure;altitude;pressure_sealevel;temperature
68743;BMP180;55725;42.758;26.702;2022-12-29T00:00:24;100394.00;;;4.70
68743;BMP180;55725;42.758;26.702;2022-12-29T00:02:04;100400.00;;;4.60
68743;BMP180;55725;42.758;26.702;2022-12-29T00:03:45;100402.00;;;4.50
68743;BMP180;55725;42.758;26.702;2022-12-29T00:05:25;100391.00;;;4.80
68743;BMP180;55725;42.758;26.702;2022-12-29T00:07:06;100394.00;;;5.30
68743;BMP180;55725;42.758;26.702;2022-12-29T00:08:46;100387.00;;;4.80
68743;BMP180;55725;42.758;26.702;2022-12-29T00:10:27;100378.00;;;4.90
68743;BMP180;55725;42.758;26.702;2022-12-29T00:12:07;100380.00;;;5.70
68743;BMP180;55725;42.758;26.702;2022-12-29T00:13:47;100376.00;;;5.50
68743;BMP180;55725;42.758;26.702;2022-12-29T00:15:46;100373.00;;;5.30
68743;BMP180;55725;42.758;26.702;2022-12-29T00:17:27;100381.00;;;4.90
68743;BMP180;55725;42.758;26.702;2022-12-29T00:19:07;100373.00;;;4.70
68743;BMP180;55725;42.758;26.702;2022-12-29T00:21:08;100379.00;;;4.80
68743;BMP180;55725;42.758;26.702;2022-12-29T00:23:16;100375.00;;;5.20
68743;BMP180;55725;42.758;26.702;2022-12-29T00:25:15;100373.00;;;5.30
68743;BMP180;55725;42.758;26.702;2022-12-29T00:27:13;100379.00;;;5.40
68743;BMP180;55725;42.758;26.702;2022-12-29T00:29:12;100378.00;;;5.30
68743;BMP180;55725;42.758;26.702;2022-12-29T00:31:11;100383.00;;;4.90
68743;BMP180;55725;42.758;26.702;2022-12-29T00:33:14;100379.00;;;5.20
68743;BMP180;55725;42.758;26.702;2022-12-29T00:35:15;100387.00;;;5.00
68743;BMP180;55725;42.758;26.702;2022-12-29T00:36:56;100385.00;;;4.70
68743;BMP180;55725;42.758;26.702;2022-12-29T00:38:37;100385.00;;;4.70
68743;BMP180;55725;42.758;26.702;2022-12-29T00:40:37;100384.00;;;4.70
68743;BMP180;55725;42.758;26.702;2022-12-29T00:42:36;100380.00;;;4.50
68743;BMP180;55725;42.758;26.702;2022-12-29T00:44:35;100385.00;;;4.60
68743;BMP180;55725;42.758;26.702;2022-12-29T00:46:15;100378.00;;;5.00
68743;BMP180;55725;42.758;26.702;2022-12-29T00:47:56;100382.00;;;5.00
68743;BMP180;55725;42.758;26.702;2022-12-29T00:49:36;100391.00;;;4.90
68743;BMP180;55725;42.758;26.702;2022-12-29T00:51:16;100392.00;;;4.80
68743;BMP180;55725;42.758;26.702;2022-12-29T00:52:57;100390.00;;;4.70
68743;BMP180;55725;42.758;26.702;2022-12-29T00:54:38;100388.00;;;4.60
68743;BMP180;55725;42.758;26.702;2022-12-29T00:56:18;100392.00;;;4.70
68743;BMP180;55725;42.758;26.702;2022-12-29T00:57:59;100389.00;;;5.00
68743;BMP180;55725;42.758;26.702;2022-12-29T00:59:39;100379.00;;;4.30
68743;BMP180;55725;42.758;26.702;2022-12-29T01:01:20;100375.00;;;4.60
68743;BMP180;55725;42.758;26.702;2022-12-29T01:03:00;100372.00;;;4.60
68743;BMP180;55725;42.758;26.702;2022-12-29T01:04:41;100373.00;;;4.90
68743;BMP180;55725;42.758;26.702;2022-12-29T01:06:21;100365.00;;;4.60
68743;BMP180;55725;42.758;26.702;2022-12-29T01:08:02;100362.00;;;4.60
68743;BMP180;55725;42.758;26.702;2022-12-29T01:09:42;100362.00;;;4.90
68743;BMP180;55725;42.758;26.702;2022-12-29T01:11:41;100364.00;;;4.80
68743;BMP180;55725;42.758;26.702;2022-12-29T01:13:22;100351.00;;;5.00
68743;BMP180;55725;42.758;26.702;2022-12-29T01:15:03;100358.00;;;4.60
68743;BMP180;55725;42.758;26.702;2022-12-29T01:16:44;100352.00;;;5.00
68743;BMP180;55725;42.758;26.702;2022-12-29T01:18:25;100354.00;;;5.00
68743;BMP180;55725;42.758;26.702;2022-12-29T01:20:05;100350.00;;;4.70
68743;BMP180;55725;42.758;26.702;2022-12-29T01:21:46;100351.00;;;4.50
68743;BMP180;55725;42.758;26.702;2022-12-29T01:23:27;100351.00;;;4.90
68743;BMP180;55725;42.758;26.702;2022-12-29T01:25:08;100342.00;;;4.60
68743;BMP180;55725;42.758;26.702;2022-12-29T01:26:48;100335.00;;;4.50
68743;BMP180;55725;42.758;26.702;2022-12-29T01:28:28;100342.00;;;4.70
68743;BMP180;55725;42.758;26.702;2022-12-29T01:30:09;100336.00;;;4.70
68743;BMP180;55725;42.758;26.702;2022-12-29T01:31:49;100347.00;;;4.50
68743;BMP180;55725;42.758;26.702;2022-12-29T01:33:30;100340.00;;;4.70
68743;BMP180;55725;42.758;26.702;2022-12-29T01:35:10;100336.00;;;4.40
68743;BMP180;55725;42.758;26.702;2022-12-29T01:36:50;100341.00;;;4.40
68743;BMP180;55725;42.758;26.702;2022-12-29T01:38:31;100342.00;;;4.80
68743;BMP180;55725;42.758;26.702;2022-12-29T01:40:12;100326.00;;;4.50
68743;BMP180;55725;42.758;26.702;2022-12-29T01:41:52;100319.00;;;4.40
68743;BMP180;55725;42.758;26.702;2022-12-29T01:45:31;100313.00;;;4.40
68743;BMP180;55725;42.758;26.702;2022-12-29T01:47:12;100301.00;;;4.30
68743;BMP180;55725;42.758;26.702;2022-12-29T01:50:40;100304.00;;;4.60
68743;BMP180;55725;42.758;26.702;2022-12-29T01:52:21;100310.00;;;4.70
68743;BMP180;55725;42.758;26.702;2022-12-29T01:54:02;100311.00;;;4.60
68743;BMP180;55725;42.758;26.702;2022-12-29T01:55:54;100303.00;;;4.60
68743;BMP180;55725;42.758;26.702;2022-12-29T01:57:37;100306.00;;;4.50
68743;BMP180;55725;42.758;26.702;2022-12-29T01:59:20;100303.00;;;4.60
68743;BMP180;55725;42.758;26.702;2022-12-29T02:01:02;100309.00;;;4.50
68743;BMP180;55725;42.758;26.702;2022-12-29T02:02:45;100302.00;;;4.80
68743;BMP180;55725;42.758;26.702;2022-12-29T02:04:26;100306.00;;;4.30
68743;BMP180;55725;42.758;26.702;2022-12-29T02:07:59;100304.00;;;3.80
68743;BMP180;55725;42.758;26.702;2022-12-29T02:09:40;100300.00;;;4.00
68743;BMP180;55725;42.758;26.702;2022-12-29T02:11:21;100304.00;;;3.70
68743;BMP180;55725;42.758;26.702;2022-12-29T02:13:03;100302.00;;;3.60
68743;BMP180;55725;42.758;26.702;2022-12-29T02:14:44;100295.00;;;3.60
68743;BMP180;55725;42.758;26.702;2022-12-29T02:18:39;100288.00;;;3.50
68743;BMP180;55725;42.758;26.702;2022-12-29T02:22:10;100287.00;;;3.20
68743;BMP180;55725;42.758;26.702;2022-12-29T02:31:31;100287.00;;;2.90
68743;BMP180;55725;42.758;26.702;2022-12-29T02:36:35;100293.00;;;2.90
68743;BMP180;55725;42.758;26.702;2022-12-29T02:38:29;100288.00;;;3.00
68743;BMP180;55725;42.758;26.702;2022-12-29T02:41:56;100282.00;;;2.60
68743;BMP180;55725;42.758;26.702;2022-12-29T02:43:44;100287.00;;;2.50
68743;BMP180;55725;42.758;26.702;2022-12-29T02:45:31;100280.00;;;2.40
68743;BMP180;55725;42.758;26.702;2022-12-29T02:50:48;100277.00;;;2.40
68743;BMP180;55725;42.758;26.702;2022-12-29T02:52:35;100286.00;;;2.60
68743;BMP180;55725;42.758;26.702;2022-12-29T02:54:17;100281.00;;;2.30
68743;BMP180;55725;42.758;26.702;2022-12-29T02:56:16;100265.00;;;2.20
68743;BMP180;55725;42.758;26.702;2022-12-29T03:00:08;100260.00;;;2.40
68743;BMP180;55725;42.758;26.702;2022-12-29T03:01:57;100267.00;;;2.30
68743;BMP180;55725;42.758;26.702;2022-12-29T03:06:02;100278.00;;;2.30
68743;BMP180;55725;42.758;26.702;2022-12-29T03:11:25;100271.00;;;2.00
68743;BMP180;55725;42.758;26.702;2022-12-29T03:15:29;100274.00;;;2.10
68743;BMP180;55725;42.758;26.702;2022-12-29T03:17:50;100264.00;;;2.50
68743;BMP180;55725;42.758;26.702;2022-12-29T03:19:35;100261.00;;;2.20
68743;BMP180;55725;42.758;26.702;2022-12-29T03:22:58;100255.00;;;1.90
68743;BMP180;55725;42.758;26.702;2022-12-29T03:24:42;100263.00;;;1.80
68743;BMP180;55725;42.758;26.702;2022-12-29T03:26:23;100258.00;;;1.90
68743;BMP180;55725;42.758;26.702;2022-12-29T03:28:12;100260.00;;;2.30
68743;BMP180;55725;42.758;26.702;2022-12-29T03:29:54;100263.00;;;1.80
68743;BMP180;55725;42.758;26.702;2022-12-29T03:31:36;100272.00;;;1.80
68743;BMP180;55725;42.758;26.702;2022-12-29T03:33:19;100269.00;;;1.40
68743;BMP180;55725;42.758;26.702;2022-12-29T03:35:01;100276.00;;;1.40
68743;BMP180;55725;42.758;26.702;2022-12-29T03:36:44;100271.00;;;1.40
68743;BMP180;55725;42.758;26.702;2022-12-29T03:40:23;100272.00;;;1.70
68743;BMP180;55725;42.758;26.702;2022-12-29T03:42:05;100279.00;;;1.70
68743;BMP180;55725;42.758;26.702;2022-12-29T03:43:48;100268.00;;;1.70
68743;BMP180;55725;42.758;26.702;2022-12-29T03:45:29;100281.00;;;1.70
68743;BMP180;55725;42.758;26.702;2022-12-29T03:47:10;100273.00;;;1.70
68743;BMP180;55725;42.758;26.702;2022-12-29T03:48:50;100276.00;;;1.40
68743;BMP180;55725;42.758;26.702;2022-12-29T03:50:30;100278.00;;;1.20
68743;BMP180;55725;42.758;26.702;2022-12-29T03:52:11;100282.00;;;1.00
68743;BMP180;55725;42.758;26.702;2022-12-29T03:53:51;100279.00;;;1.20
68743;BMP180;55725;42.758;26.702;2022-12-29T03:55:32;100281.00;;;0.70
68743;BMP180;55725;42.758;26.702;2022-12-29T03:57:12;100278.00;;;0.80
68743;BMP180;55725;42.758;26.702;2022-12-29T03:58:52;100275.00;;;0.90
68743;BMP180;55725;42.758;26.702;2022-12-29T04:00:33;100279.00;;;0.80
68743;BMP180;55725;42.758;26.702;2022-12-29T04:02:13;100280.00;;;0.90
68743;BMP180;55725;42.758;26.702;2022-12-29T04:03:53;100282.00;;;1.20
68743;BMP180;55725;42.758;26.702;2022-12-29T04:05:34;100279.00;;;1.40
68743;BMP180;55725;42.758;26.702;2022-12-29T04:07:14;100270.00;;;1.40
68743;BMP180;55725;42.758;26.702;2022-12-29T04:08:54;100285.00;;;0.70
68743;BMP180;55725;42.758;26.702;2022-12-29T04:10:34;100289.00;;;1.50
68743;BMP180;55725;42.758;26.702;2022-12-29T04:12:15;100299.00;;;1.90
68743;BMP180;55725;42.758;26.702;2022-12-29T04:13:55;100287.00;;;1.00
68743;BMP180;55725;42.758;26.702;2022-12-29T04:15:35;100296.00;;;1.10
68743;BMP180;55725;42.758;26.702;2022-12-29T04:17:16;100289.00;;;1.40
68743;BMP180;55725;42.758;26.702;2022-12-29T04:18:56;100288.00;;;1.50
68743;BMP180;55725;42.758;26.702;2022-12-29T04:20:36;100285.00;;;0.90
68743;BMP180;55725;42.758;26.702;2022-12-29T04:22:35;100285.00;;;1.00
68743;BMP180;55725;42.758;26.702;2022-12-29T04:24:16;100281.00;;;1.40
68743;BMP180;55725;42.758;26.702;2022-12-29T04:25:56;100288.00;;;1.10
68743;BMP180;55725;42.758;26.702;2022-12-29T04:27:36;100277.00;;;-0.10
68743;BMP180;55725;42.758;26.702;2022-12-29T04:29:17;100283.00;;;0.70
68743;BMP180;55725;42.758;26.702;2022-12-29T04:30:57;100286.00;;;0.70
68743;BMP180;55725;42.758;26.702;2022-12-29T04:32:37;100284.00;;;0.60
68743;BMP180;55725;42.758;26.702;2022-12-29T04:34:18;100281.00;;;1.20
68743;BMP180;55725;42.758;26.702;2022-12-29T04:35:58;100282.00;;;1.10
68743;BMP180;55725;42.758;26.702;2022-12-29T04:37:38;100279.00;;;1.30
68743;BMP180;55725;42.758;26.702;2022-12-29T04:39:19;100288.00;;;1.10
68743;BMP180;55725;42.758;26.702;2022-12-29T04:40:59;100290.00;;;0.90
68743;BMP180;55725;42.758;26.702;2022-12-29T04:42:40;100293.00;;;1.40
68743;BMP180;55725;42.758;26.702;2022-12-29T04:44:20;100298.00;;;1.10
68743;BMP180;55725;42.758;26.702;2022-12-29T04:46:01;100298.00;;;1.10
68743;BMP180;55725;42.758;26.702;2022-12-29T04:47:41;100306.00;;;1.10
68743;BMP180;55725;42.758;26.702;2022-12-29T04:49:21;100304.00;;;0.60
68743;BMP180;55725;42.758;26.702;2022-12-29T04:51:02;100304.00;;;0.80
68743;BMP180;55725;42.758;26.702;2022-12-29T04:52:42;100294.00;;;0.70
68743;BMP180;55725;42.758;26.702;2022-12-29T04:54:22;100299.00;;;1.00
68743;BMP180;55725;42.758;26.702;2022-12-29T04:56:03;100299.00;;;0.90
68743;BMP180;55725;42.758;26.702;2022-12-29T04:57:43;100296.00;;;0.70
68743;BMP180;55725;42.758;26.702;2022-12-29T04:59:23;100292.00;;;0.90
68743;BMP180;55725;42.758;26.702;2022-12-29T05:01:04;100299.00;;;0.40
68743;BMP180;55725;42.758;26.702;2022-12-29T05:02:44;100294.00;;;0.50
68743;BMP180;55725;42.758;26.702;2022-12-29T05:04:24;100294.00;;;0.30
68743;BMP180;55725;42.758;26.702;2022-12-29T05:06:05;100301.00;;;0.40
68743;BMP180;55725;42.758;26.702;2022-12-29T05:07:45;100296.00;;;0.60
68743;BMP180;55725;42.758;26.702;2022-12-29T05:09:25;100302.00;;;0.70
68743;BMP180;55725;42.758;26.702;2022-12-29T05:11:06;100290.00;;;1.00
68743;BMP180;55725;42.758;26.702;2022-12-29T05:12:46;100296.00;;;1.40
68743;BMP180;55725;42.758;26.702;2022-12-29T05:14:26;100297.00;;;1.10
68743;BMP180;55725;42.758;26.702;2022-12-29T05:16:07;100302.00;;;0.70
68743;BMP180;55725;42.758;26.702;2022-12-29T05:17:47;100299.00;;;0.10
68743;BMP180;55725;42.758;26.702;2022-12-29T05:19:27;100298.00;;;0.10
68743;BMP180;55725;42.758;26.702;2022-12-29T05:21:07;100299.00;;;0.40
68743;BMP180;55725;42.758;26.702;2022-12-29T05:22:48;100291.00;;;0.10
68743;BMP180;55725;42.758;26.702;2022-12-29T05:24:28;100288.00;;;0.20
68743;BMP180;55725;42.758;26.702;2022-12-29T05:26:08;100288.00;;;0.20
68743;BMP180;55725;42.758;26.702;2022-12-29T05:27:49;100288.00;;;-0.10
68743;BMP180;55725;42.758;26.702;2022-12-29T05:29:29;100283.00;;;0.40
68743;BMP180;55725;42.758;26.702;2022-12-29T05:31:09;100282.00;;;0.20
68743;BMP180;55725;42.758;26.702;2022-12-29T05:32:49;100282.00;;;0.20
68743;BMP180;55725;42.758;26.702;2022-12-29T05:34:30;100288.00;;;0.20
68743;BMP180;55725;42.758;26.702;2022-12-29T05:36:10;100286.00;;;0.10
68743;BMP180;55725;42.758;26.702;2022-12-29T05:37:51;100280.00;;;0.40
68743;BMP180;55725;42.758;26.702;2022-12-29T05:39:31;100288.00;;;0.40
68743;BMP180;55725;42.758;26.702;2022-12-29T05:41:11;100292.00;;;0.70
68743;BMP180;55725;42.758;26.702;2022-12-29T05:42:51;100304.00;;;0.80
68743;BMP180;55725;42.758;26.702;2022-12-29T05:44:32;100302.00;;;0.40
68743;BMP180;55725;42.758;26.702;2022-12-29T05:46:12;100301.00;;;0.50
68743;BMP180;55725;42.758;26.702;2022-12-29T05:47:53;100306.00;;;0.40
68743;BMP180;55725;42.758;26.702;2022-12-29T05:49:33;100294.00;;;0.10
68743;BMP180;55725;42.758;26.702;2022-12-29T05:51:13;100290.00;;;0.20
68743;BMP180;55725;42.758;26.702;2022-12-29T05:52:54;100296.00;;;0.30
68743;BMP180;55725;42.758;26.702;2022-12-29T05:54:34;100298.00;;;0.40
68743;BMP180;55725;42.758;26.702;2022-12-29T05:56:14;100295.00;;;0.30
68743;BMP180;55725;42.758;26.702;2022-12-29T05:57:54;100295.00;;;0.20
68743;BMP180;55725;42.758;26.702;2022-12-29T05:59:35;100297.00;;;0.30
68743;BMP180;55725;42.758;26.702;2022-12-29T06:01:15;100307.00;;;0.00
68743;BMP180;55725;42.758;26.702;2022-12-29T06:02:55;100295.00;;;0.40
68743;BMP180;55725;42.758;26.702;2022-12-29T06:04:36;100303.00;;;0.30
68743;BMP180;55725;42.758;26.702;2022-12-29T06:06:16;100309.00;;;0.40
68743;BMP180;55725;42.758;26.702;2022-12-29T06:07:56;100303.00;;;0.40
68743;BMP180;55725;42.758;26.702;2022-12-29T06:09:37;100306.00;;;0.30
68743;BMP180;55725;42.758;26.702;2022-12-29T06:11:17;100311.00;;;0.20
68743;BMP180;55725;42.758;26.702;2022-12-29T06:12:57;100307.00;;;0.80
68743;BMP180;55725;42.758;26.702;2022-12-29T06:14:37;100308.00;;;0.80
68743;BMP180;55725;42.758;26.702;2022-12-29T06:16:18;100306.00;;;0.70
68743;BMP180;55725;42.758;26.702;2022-12-29T06:17:58;100305.00;;;0.40
68743;BMP180;55725;42.758;26.702;2022-12-29T06:19:38;100302.00;;;0.40
68743;BMP180;55725;42.758;26.702;2022-12-29T06:21:19;100304.00;;;0.70
68743;BMP180;55725;42.758;26.702;2022-12-29T06:22:59;100305.00;;;0.90
68743;BMP180;55725;42.758;26.702;2022-12-29T06:24:39;100302.00;;;1.00
68743;BMP180;55725;42.758;26.702;2022-12-29T06:26:20;100304.00;;;0.60
68743;BMP180;55725;42.758;26.702;2022-12-29T06:28:00;100292.00;;;0.80
68743;BMP180;55725;42.758;26.702;2022-12-29T06:29:40;100290.00;;;0.80
68743;BMP180;55725;42.758;26.702;2022-12-29T06:31:21;100286.00;;;0.90
68743;BMP180;55725;42.758;26.702;2022-12-29T06:33:01;100276.00;;;1.20
68743;BMP180;55725;42.758;26.702;2022-12-29T06:34:41;100263.00;;;1.30
68743;BMP180;55725;42.758;26.702;2022-12-29T06:36:22;100270.00;;;1.70
68743;BMP180;55725;42.758;26.702;2022-12-29T06:38:02;100258.00;;;1.50
68743;BMP180;55725;42.758;26.702;2022-12-29T06:39:42;100259.00;;;1.60
68743;BMP180;55725;42.758;26.702;2022-12-29T06:41:23;100272.00;;;1.90
68743;BMP180;55725;42.758;26.702;2022-12-29T06:43:03;100255.00;;;2.40
68743;BMP180;55725;42.758;26.702;2022-12-29T06:44:44;100270.00;;;2.50
68743;BMP180;55725;42.758;26.702;2022-12-29T06:46:24;100286.00;;;2.70
68743;BMP180;55725;42.758;26.702;2022-12-29T06:48:04;100292.00;;;2.70
68743;BMP180;55725;42.758;26.702;2022-12-29T06:49:45;100286.00;;;2.70
68743;BMP180;55725;42.758;26.702;2022-12-29T06:51:25;100282.00;;;2.30
68743;BMP180;55725;42.758;26.702;2022-12-29T06:53:05;100284.00;;;2.00
68743;BMP180;55725;42.758;26.702;2022-12-29T06:54:46;100294.00;;;2.40
68743;BMP180;55725;42.758;26.702;2022-12-29T06:56:26;100298.00;;;2.00
68743;BMP180;55725;42.758;26.702;2022-12-29T06:58:06;100294.00;;;2.10
68743;BMP180;55725;42.758;26.702;2022-12-29T06:59:47;100304.00;;;2.30
68743;BMP180;55725;42.758;26.702;2022-12-29T07:01:27;100306.00;;;2.40
68743;BMP180;55725;42.758;26.702;2022-12-29T07:03:07;100301.00;;;2.20
68743;BMP180;55725;42.758;26.702;2022-12-29T07:04:48;100297.00;;;2.60
68743;BMP180;55725;42.758;26.702;2022-12-29T07:06:28;100298.00;;;2.80
68743;BMP180;55725;42.758;26.702;2022-12-29T07:08:08;100289.00;;;3.00
68743;BMP180;55725;42.758;26.702;2022-12-29T07:09:49;100296.00;;;2.70
68743;BMP180;55725;42.758;26.702;2022-12-29T07:11:29;100318.00;;;2.90
68743;BMP180;55725;42.758;26.702;2022-12-29T07:13:09;100315.00;;;2.80
68743;BMP180;55725;42.758;26.702;2022-12-29T07:14:49;100317.00;;;3.10
68743;BMP180;55725;42.758;26.702;2022-12-29T07:16:30;100305.00;;;3.00
68743;BMP180;55725;42.758;26.702;2022-12-29T07:18:11;100296.00;;;2.60
68743;BMP180;55725;42.758;26.702;2022-12-29T07:19:51;100305.00;;;2.40
68743;BMP180;55725;42.758;26.702;2022-12-29T07:21:32;100313.00;;;2.30
68743;BMP180;55725;42.758;26.702;2022-12-29T07:23:12;100308.00;;;2.10
68743;BMP180;55725;42.758;26.702;2022-12-29T07:24:52;100301.00;;;2.20
68743;BMP180;55725;42.758;26.702;2022-12-29T07:26:32;100305.00;;;1.90
68743;BMP180;55725;42.758;26.702;2022-12-29T07:28:13;100281.00;;;2.20
68743;BMP180;55725;42.758;26.702;2022-12-29T07:29:53;100297.00;;;2.30
68743;BMP180;55725;42.758;26.702;2022-12-29T07:31:33;100299.00;;;3.00
68743;BMP180;55725;42.758;26.702;2022-12-29T07:33:14;100306.00;;;3.20
68743;BMP180;55725;42.758;26.702;2022-12-29T07:34:54;100296.00;;;2.90
68743;BMP180;55725;42.758;26.702;2022-12-29T07:36:34;100307.00;;;2.40
68743;BMP180;55725;42.758;26.702;2022-12-29T07:38:15;100306.00;;;2.10
68743;BMP180;55725;42.758;26.702;2022-12-29T07:39:56;100312.00;;;2.50
68743;BMP180;55725;42.758;26.702;2022-12-29T07:41:36;100316.00;;;2.40
68743;BMP180;55725;42.758;26.702;2022-12-29T07:43:16;100304.00;;;2.30
68743;BMP180;55725;42.758;26.702;2022-12-29T07:44:57;100304.00;;;2.00
68743;BMP180;55725;42.758;26.702;2022-12-29T07:46:37;100302.00;;;2.30
68743;BMP180;55725;42.758;26.702;2022-12-29T07:48:17;100309.00;;;2.50
68743;BMP180;55725;42.758;26.702;2022-12-29T07:49:58;100307.00;;;2.70
68743;BMP180;55725;42.758;26.702;2022-12-29T07:51:38;100309.00;;;2.90
68743;BMP180;55725;42.758;26.702;2022-12-29T07:53:18;100313.00;;;2.90
68743;BMP180;55725;42.758;26.702;2022-12-29T07:54:59;100291.00;;;2.80
68743;BMP180;55725;42.758;26.702;2022-12-29T07:56:39;100311.00;;;3.00
68743;BMP180;55725;42.758;26.702;2022-12-29T07:58:19;100315.00;;;3.40
68743;BMP180;55725;42.758;26.702;2022-12-29T07:59:59;100314.00;;;3.60
68743;BMP180;55725;42.758;26.702;2022-12-29T08:01:40;100316.00;;;3.40
68743;BMP180;55725;42.758;26.702;2022-12-29T08:03:20;100302.00;;;3.60
68743;BMP180;55725;42.758;26.702;2022-12-29T08:05:01;100310.00;;;3.60
68743;BMP180;55725;42.758;26.702;2022-12-29T08:06:41;100308.00;;;3.40
68743;BMP180;55725;42.758;26.702;2022-12-29T08:08:22;100309.00;;;3.50
68743;BMP180;55725;42.758;26.702;2022-12-29T08:10:02;100310.00;;;4.00
68743;BMP180;55725;42.758;26.702;2022-12-29T08:11:43;100304.00;;;3.90
68743;BMP180;55725;42.758;26.702;2022-12-29T08:13:24;100308.00;;;3.60
68743;BMP180;55725;42.758;26.702;2022-12-29T08:15:04;100315.00;;;4.10
68743;BMP180;55725;42.758;26.702;2022-12-29T08:16:45;100308.00;;;4.30
68743;BMP180;55725;42.758;26.702;2022-12-29T08:18:25;100315.00;;;3.90
68743;BMP180;55725;42.758;26.702;2022-12-29T08:20:06;100316.00;;;3.60
68743;BMP180;55725;42.758;26.702;2022-12-29T08:21:46;100304.00;;;4.00
68743;BMP180;55725;42.758;26.702;2022-12-29T08:23:27;100318.00;;;4.00
68743;BMP180;55725;42.758;26.702;2022-12-29T08:25:07;100318.00;;;3.60
68743;BMP180;55725;42.758;26.702;2022-12-29T08:26:48;100313.00;;;3.50
68743;BMP180;55725;42.758;26.702;2022-12-29T08:28:28;100301.00;;;4.00
68743;BMP180;55725;42.758;26.702;2022-12-29T08:30:08;100309.00;;;4.00
68743;BMP180;55725;42.758;26.702;2022-12-29T08:31:49;100298.00;;;4.30
68743;BMP180;55725;42.758;26.702;2022-12-29T08:33:29;100295.00;;;4.30
68743;BMP180;55725;42.758;26.702;2022-12-29T08:35:10;100298.00;;;4.20
68743;BMP180;55725;42.758;26.702;2022-12-29T08:36:50;100282.00;;;4.30
68743;BMP180;55725;42.758;26.702;2022-12-29T08:38:31;100248.00;;;5.20
68743;BMP180;55725;42.758;26.702;2022-12-29T08:40:11;100279.00;;;5.30
68743;BMP180;55725;42.758;26.702;2022-12-29T08:41:51;100288.00;;;5.00
68743;BMP180;55725;42.758;26.702;2022-12-29T08:43:32;100277.00;;;5.40
68743;BMP180;55725;42.758;26.702;2022-12-29T08:45:12;100220.00;;;6.10
68743;BMP180;55725;42.758;26.702;2022-12-29T08:46:52;100235.00;;;6.30
68743;BMP180;55725;42.758;26.702;2022-12-29T08:48:32;100211.00;;;5.70
68743;BMP180;55725;42.758;26.702;2022-12-29T08:50:13;100183.00;;;6.50
68743;BMP180;55725;42.758;26.702;2022-12-29T08:51:53;100177.00;;;7.30
68743;BMP180;55725;42.758;26.702;2022-12-29T08:53:33;100177.00;;;7.50
68743;BMP180;55725;42.758;26.702;2022-12-29T08:55:14;100188.00;;;7.50
68743;BMP180;55725;42.758;26.702;2022-12-29T08:56:54;100190.00;;;7.60
68743;BMP180;55725;42.758;26.702;2022-12-29T08:58:34;100178.00;;;7.70
68743;BMP180;55725;42.758;26.702;2022-12-29T09:00:15;100174.00;;;7.70
68743;BMP180;55725;42.758;26.702;2022-12-29T09:01:56;100178.00;;;7.00
68743;BMP180;55725;42.758;26.702;2022-12-29T09:03:36;100177.00;;;6.90
68743;BMP180;55725;42.758;26.702;2022-12-29T09:05:17;100177.00;;;8.20
68743;BMP180;55725;42.758;26.702;2022-12-29T09:06:57;100172.00;;;8.10
68743;BMP180;55725;42.758;26.702;2022-12-29T09:08:37;100176.00;;;7.90
68743;BMP180;55725;42.758;26.702;2022-12-29T09:10:17;100183.00;;;8.10
68743;BMP180;55725;42.758;26.702;2022-12-29T09:11:58;100178.00;;;8.10
68743;BMP180;55725;42.758;26.702;2022-12-29T09:13:38;100177.00;;;7.90
68743;BMP180;55725;42.758;26.702;2022-12-29T09:15:18;100169.00;;;7.50
68743;BMP180;55725;42.758;26.702;2022-12-29T09:16:59;100163.00;;;7.10
68743;BMP180;55725;42.758;26.702;2022-12-29T09:18:58;100169.00;;;7.40
68743;BMP180;55725;42.758;26.702;2022-12-29T09:20:38;100169.00;;;7.90
68743;BMP180;55725;42.758;26.702;2022-12-29T09:22:18;100167.00;;;8.00
68743;BMP180;55725;42.758;26.702;2022-12-29T09:23:59;100172.00;;;7.60
68743;BMP180;55725;42.758;26.702;2022-12-29T09:25:39;100172.00;;;7.60
68743;BMP180;55725;42.758;26.702;2022-12-29T09:27:19;100163.00;;;8.10
68743;BMP180;55725;42.758;26.702;2022-12-29T09:29:00;100158.00;;;8.10
68743;BMP180;55725;42.758;26.702;2022-12-29T09:30:41;100159.00;;;8.10
68743;BMP180;55725;42.758;26.702;2022-12-29T09:32:21;100161.00;;;8.00
68743;BMP180;55725;42.758;26.702;2022-12-29T09:34:02;100163.00;;;8.10
68743;BMP180;55725;42.758;26.702;2022-12-29T09:35:43;100163.00;;;8.90
68743;BMP180;55725;42.758;26.702;2022-12-29T09:37:23;100158.00;;;9.30
68743;BMP180;55725;42.758;26.702;2022-12-29T09:39:03;100171.00;;;12.10
68743;BMP180;55725;42.758;26.702;2022-12-29T09:40:44;100155.00;;;9.30
68743;BMP180;55725;42.758;26.702;2022-12-29T09:48:27;100150.00;;;10.10
68743;BMP180;55725;42.758;26.702;2022-12-29T09:50:13;100148.00;;;9.70
68743;BMP180;55725;42.758;26.702;2022-12-29T09:51:55;100157.00;;;13.20
68743;BMP180;55725;42.758;26.702;2022-12-29T09:53:44;100151.00;;;12.80
68743;BMP180;55725;42.758;26.702;2022-12-29T09:55:30;100155.00;;;14.80
68743;BMP180;55725;42.758;26.702;2022-12-29T09:57:17;100155.00;;;14.30
68743;BMP180;55725;42.758;26.702;2022-12-29T09:59:08;100157.00;;;13.70
68743;BMP180;55725;42.758;26.702;2022-12-29T10:00:52;100151.00;;;16.80
68743;BMP180;55725;42.758;26.702;2022-12-29T10:02:36;100147.00;;;15.10
68743;BMP180;55725;42.758;26.702;2022-12-29T10:04:17;100147.00;;;15.10
68743;BMP180;55725;42.758;26.702;2022-12-29T10:06:11;100139.00;;;12.30
68743;BMP180;55725;42.758;26.702;2022-12-29T10:07:55;100133.00;;;11.00
68743;BMP180;55725;42.758;26.702;2022-12-29T10:09:44;100130.00;;;10.80
68743;BMP180;55725;42.758;26.702;2022-12-29T10:11:35;100125.00;;;11.10
68743;BMP180;55725;42.758;26.702;2022-12-29T10:15:13;100129.00;;;13.60
68743;BMP180;55725;42.758;26.702;2022-12-29T10:18:50;100146.00;;;16.40
68743;BMP180;55725;42.758;26.702;2022-12-29T10:22:20;100103.00;;;12.30
68743;BMP180;55725;42.758;26.702;2022-12-29T10:24:07;100110.00;;;11.00
68743;BMP180;55725;42.758;26.702;2022-12-29T10:25:49;100108.00;;;10.80
68743;BMP180;55725;42.758;26.702;2022-12-29T10:27:32;100106.00;;;10.20
68743;BMP180;55725;42.758;26.702;2022-12-29T10:29:14;100111.00;;;10.80
68743;BMP180;55725;42.758;26.702;2022-12-29T10:30:56;100104.00;;;10.40